sensor_id;sensor_type;location;lat;lon;timestamp;temperature;humidity
4453;DHT22;2239;48.152;11.584;2023-12-14T00:01:12;6.50;99.90
4453;DHT22;2239;48.152;11.584;2023-12-14T00:03:39;6.50;99.90
4453;DHT22;2239;48.152;11.584;2023-12-14T00:06:07;6.50;99.90
4453;DHT22;2239;48.152;11.584;2023-12-14T00:08:33;6.50;99.90
4453;DHT22;2239;48.152;11.584;2023-12-14T00:11:04;6.50;99.90
4453;DHT22;2239;48.152;11.584;2023-12-14T00:13:29;6.50;99.90
4453;DHT22;2239;48.152;11.584;2023-12-14T00:15:55;6.50;99.90
4453;DHT22;2239;48.152;11.584;2023-12-14T00:18:20;6.50;99.90
4453;DHT22;2239;48.152;11.584;2023-12-14T00:20:46;6.40;99.90
4453;DHT22;2239;48.152;11.584;2023-12-14T00:23:12;6.50;99.90
4453;DHT22;2239;48.152;11.584;2023-12-14T00:25:39;6.50;99.90
4453;DHT22;2239;48.152;11.584;2023-12-14T00:28:04;6.50;99.90
4453;DHT22;2239;48.152;11.584;2023-12-14T00:30:30;6.50;99.90
4453;DHT22;2239;48.152;11.584;2023-12-14T00:32:55;6.60;99.90
4453;DHT22;2239;48.152;11.584;2023-12-14T00:35:21;6.50;99.90
4453;DHT22;2239;48.152;11.584;2023-12-14T00:37:46;6.50;99.90
4453;DHT22;2239;48.152;11.584;2023-12-14T00:40:12;6.50;99.90
4453;DHT22;2239;48.152;11.584;2023-12-14T00:42:37;6.50;99.90
4453;DHT22;2239;48.152;11.584;2023-12-14T00:45:03;6.50;99.90
4453;DHT22;2239;48.152;11.584;2023-12-14T00:47:29;6.50;99.90
4453;DHT22;2239;48.152;11.584;2023-12-14T00:49:54;6.50;99.90
4453;DHT22;2239;48.152;11.584;2023-12-14T00:52:20;6.50;99.90
4453;DHT22;2239;48.152;11.584;2023-12-14T00:54:45;6.50;99.90
4453;DHT22;2239;48.152;11.584;2023-12-14T00:57:11;6.50;99.90
4453;DHT22;2239;48.152;11.584;2023-12-14T00:59:37;6.50;99.90
4453;DHT22;2239;48.152;11.584;2023-12-14T01:02:02;6.50;99.90
4453;DHT22;2239;48.152;11.584;2023-12-14T01:04:28;6.50;99.90
4453;DHT22;2239;48.152;11.584;2023-12-14T01:06:53;6.50;99.90
4453;DHT22;2239;48.152;11.584;2023-12-14T01:09:19;6.50;99.90
4453;DHT22;2239;48.152;11.584;2023-12-14T01:11:44;6.50;99.90
4453;DHT22;2239;48.152;11.584;2023-12-14T01:14:10;6.50;99.90
4453;DHT22;2239;48.152;11.584;2023-12-14T01:16:35;6.50;99.90
4453;DHT22;2239;48.152;11.584;2023-12-14T01:19:01;6.50;99.90
4453;DHT22;2239;48.152;11.584;2023-12-14T01:21:26;6.40;99.90
4453;DHT22;2239;48.152;11.584;2023-12-14T01:23:52;6.40;99.90
4453;DHT22;2239;48.152;11.584;2023-12-14T01:26:17;6.40;99.90
4453;DHT22;2239;48.152;11.584;2023-12-14T01:28:43;6.40;99.90
4453;DHT22;2239;48.152;11.584;2023-12-14T01:31:09;6.40;99.90
4453;DHT22;2239;48.152;11.584;2023-12-14T01:33:34;6.50;99.90
4453;DHT22;2239;48.152;11.584;2023-12-14T01:36:00;6.40;99.90
4453;DHT22;2239;48.152;11.584;2023-12-14T01:38:25;6.40;99.90
4453;DHT22;2239;48.152;11.584;2023-12-14T01:40:51;6.40;99.90
4453;DHT22;2239;48.152;11.584;2023-12-14T01:43:17;6.40;99.90
4453;DHT22;2239;48.152;11.584;2023-12-14T01:45:42;6.40;99.90
4453;DHT22;2239;48.152;11.584;2023-12-14T01:48:07;6.40;99.90
4453;DHT22;2239;48.152;11.584;2023-12-14T01:50:33;6.40;99.90
4453;DHT22;2239;48.152;11.584;2023-12-14T01:52:59;6.30;99.90
4453;DHT22;2239;48.152;11.584;2023-12-14T01:55:24;6.30;99.90
4453;DHT22;2239;48.152;11.584;2023-12-14T01:57:51;6.20;99.90
4453;DHT22;2239;48.152;11.584;2023-12-14T02:03:10;6.20;99.90
4453;DHT22;2239;48.152;11.584;2023-12-14T02:05:36;6.20;99.90
4453;DHT22;2239;48.152;11.584;2023-12-14T02:08:02;6.20;99.90
4453;DHT22;2239;48.152;11.584;2023-12-14T02:10:30;6.20;99.90
4453;DHT22;2239;48.152;11.584;2023-12-14T02:12:56;6.20;99.90
4453;DHT22;2239;48.152;11.584;2023-12-14T02:15:21;6.20;99.90
4453;DHT22;2239;48.152;11.584;2023-12-14T02:17:47;6.20;99.90
4453;DHT22;2239;48.152;11.584;2023-12-14T02:20:12;6.20;99.90
4453;DHT22;2239;48.152;11.584;2023-12-14T02:22:54;6.20;99.90
4453;DHT22;2239;48.152;11.584;2023-12-14T02:25:21;6.20;99.90
4453;DHT22;2239;48.152;11.584;2023-12-14T02:27:47;6.20;99.90
4453;DHT22;2239;48.152;11.584;2023-12-14T02:30:13;6.20;99.90
4453;DHT22;2239;48.152;11.584;2023-12-14T02:32:39;6.20;99.90
4453;DHT22;2239;48.152;11.584;2023-12-14T02:35:05;6.20;99.90
4453;DHT22;2239;48.152;11.584;2023-12-14T02:37:32;6.20;99.90
4453;DHT22;2239;48.152;11.584;2023-12-14T02:39:58;6.20;99.90
4453;DHT22;2239;48.152;11.584;2023-12-14T02:42:23;6.20;99.90
4453;DHT22;2239;48.152;11.584;2023-12-14T02:44:49;6.20;99.90
4453;DHT22;2239;48.152;11.584;2023-12-14T02:47:15;6.10;99.90
4453;DHT22;2239;48.152;11.584;2023-12-14T02:49:41;6.10;99.90
4453;DHT22;2239;48.152;11.584;2023-12-14T02:52:07;6.10;99.90
4453;DHT22;2239;48.152;11.584;2023-12-14T02:54:32;6.10;99.90
4453;DHT22;2239;48.152;11.584;2023-12-14T02:56:58;6.20;99.90
4453;DHT22;2239;48.152;11.584;2023-12-14T02:59:23;6.20;99.90
4453;DHT22;2239;48.152;11.584;2023-12-14T03:01:49;6.10;99.90
4453;DHT22;2239;48.152;11.584;2023-12-14T03:04:14;6.20;99.90
4453;DHT22;2239;48.152;11.584;2023-12-14T03:06:40;6.20;99.90
4453;DHT22;2239;48.152;11.584;2023-12-14T03:09:05;6.20;99.90
4453;DHT22;2239;48.152;11.584;2023-12-14T03:11:31;6.10;99.90
4453;DHT22;2239;48.152;11.584;2023-12-14T03:13:56;6.10;99.90
4453;DHT22;2239;48.152;11.584;2023-12-14T03:16:22;6.10;99.90
4453;DHT22;2239;48.152;11.584;2023-12-14T03:18:48;6.10;99.90
4453;DHT22;2239;48.152;11.584;2023-12-14T03:21:17;6.00;99.90
4453;DHT22;2239;48.152;11.584;2023-12-14T03:23:43;6.00;99.90
4453;DHT22;2239;48.152;11.584;2023-12-14T03:26:09;6.00;99.90
4453;DHT22;2239;48.152;11.584;2023-12-14T03:28:34;6.10;99.90
4453;DHT22;2239;48.152;11.584;2023-12-14T03:31:00;6.00;99.90
4453;DHT22;2239;48.152;11.584;2023-12-14T03:33:26;6.10;99.90
4453;DHT22;2239;48.152;11.584;2023-12-14T03:35:51;6.10;99.90
4453;DHT22;2239;48.152;11.584;2023-12-14T03:38:17;6.00;99.90
4453;DHT22;2239;48.152;11.584;2023-12-14T03:40:43;6.00;99.90
4453;DHT22;2239;48.152;11.584;2023-12-14T03:43:08;6.00;99.90
4453;DHT22;2239;48.152;11.584;2023-12-14T03:45:34;6.00;99.90
4453;DHT22;2239;48.152;11.584;2023-12-14T03:47:59;6.00;99.90
4453;DHT22;2239;48.152;11.584;2023-12-14T03:50:25;6.00;99.90
4453;DHT22;2239;48.152;11.584;2023-12-14T03:52:50;6.00;99.90
4453;DHT22;2239;48.152;11.584;2023-12-14T03:55:16;6.00;99.90
4453;DHT22;2239;48.152;11.584;2023-12-14T03:57:42;6.00;99.90
4453;DHT22;2239;48.152;11.584;2023-12-14T04:00:10;5.90;99.90
4453;DHT22;2239;48.152;11.584;2023-12-14T04:02:36;5.90;99.90
4453;DHT22;2239;48.152;11.584;2023-12-14T04:05:01;6.00;99.90
4453;DHT22;2239;48.152;11.584;2023-12-14T04:07:27;5.90;99.90
4453;DHT22;2239;48.152;11.584;2023-12-14T04:09:53;5.90;99.90
4453;DHT22;2239;48.152;11.584;2023-12-14T04:12:18;5.90;99.90
4453;DHT22;2239;48.152;11.584;2023-12-14T04:14:45;5.90;99.90
4453;DHT22;2239;48.152;11.584;2023-12-14T04:17:10;5.90;99.90
4453;DHT22;2239;48.152;11.584;2023-12-14T04:19:38;5.90;99.90
4453;DHT22;2239;48.152;11.584;2023-12-14T04:22:04;5.90;99.90
4453;DHT22;2239;48.152;11.584;2023-12-14T04:24:29;5.90;99.90
4453;DHT22;2239;48.152;11.584;2023-12-14T04:26:56;5.90;99.90
4453;DHT22;2239;48.152;11.584;2023-12-14T04:29:21;5.80;99.90
4453;DHT22;2239;48.152;11.584;2023-12-14T04:31:47;5.90;99.90
4453;DHT22;2239;48.152;11.584;2023-12-14T04:34:13;5.80;99.90
4453;DHT22;2239;48.152;11.584;2023-12-14T04:36:45;5.90;99.90
4453;DHT22;2239;48.152;11.584;2023-12-14T04:39:11;5.90;99.90
4453;DHT22;2239;48.152;11.584;2023-12-14T04:41:36;5.80;99.90
4453;DHT22;2239;48.152;11.584;2023-12-14T04:44:02;5.90;99.90
4453;DHT22;2239;48.152;11.584;2023-12-14T04:46:28;5.90;99.90
4453;DHT22;2239;48.152;11.584;2023-12-14T04:48:54;5.80;99.90
4453;DHT22;2239;48.152;11.584;2023-12-14T04:51:19;5.90;99.90
4453;DHT22;2239;48.152;11.584;2023-12-14T04:53:45;5.80;99.90
4453;DHT22;2239;48.152;11.584;2023-12-14T04:56:11;5.80;99.90
4453;DHT22;2239;48.152;11.584;2023-12-14T04:58:39;5.80;99.90
4453;DHT22;2239;48.152;11.584;2023-12-14T05:01:05;5.80;99.90
4453;DHT22;2239;48.152;11.584;2023-12-14T05:03:30;5.80;99.90
4453;DHT22;2239;48.152;11.584;2023-12-14T05:05:56;5.80;99.90
4453;DHT22;2239;48.152;11.584;2023-12-14T05:08:22;5.80;99.90
4453;DHT22;2239;48.152;11.584;2023-12-14T05:10:47;5.80;99.90
4453;DHT22;2239;48.152;11.584;2023-12-14T05:13:13;5.80;99.90
4453;DHT22;2239;48.152;11.584;2023-12-14T05:15:38;5.80;99.90
4453;DHT22;2239;48.152;11.584;2023-12-14T05:18:04;5.80;99.90
4453;DHT22;2239;48.152;11.584;2023-12-14T05:20:29;5.80;99.90
4453;DHT22;2239;48.152;11.584;2023-12-14T05:22:55;5.70;99.90
4453;DHT22;2239;48.152;11.584;2023-12-14T05:25:20;5.70;99.90
4453;DHT22;2239;48.152;11.584;2023-12-14T05:27:46;5.70;99.90
4453;DHT22;2239;48.152;11.584;2023-12-14T05:30:12;5.70;99.90
4453;DHT22;2239;48.152;11.584;2023-12-14T05:32:37;5.80;99.90
4453;DHT22;2239;48.152;11.584;2023-12-14T05:35:03;5.80;99.90
4453;DHT22;2239;48.152;11.584;2023-12-14T05:37:29;5.80;99.90
4453;DHT22;2239;48.152;11.584;2023-12-14T05:39:54;5.80;99.90
4453;DHT22;2239;48.152;11.584;2023-12-14T05:42:20;5.70;99.90
4453;DHT22;2239;48.152;11.584;2023-12-14T05:44:45;5.70;99.90
4453;DHT22;2239;48.152;11.584;2023-12-14T05:47:11;5.70;99.90
4453;DHT22;2239;48.152;11.584;2023-12-14T05:49:40;5.80;99.90
4453;DHT22;2239;48.152;11.584;2023-12-14T05:52:06;5.80;99.90
4453;DHT22;2239;48.152;11.584;2023-12-14T05:54:32;5.70;99.90
4453;DHT22;2239;48.152;11.584;2023-12-14T05:56:58;5.70;99.90
4453;DHT22;2239;48.152;11.584;2023-12-14T05:59:23;5.70;99.90
4453;DHT22;2239;48.152;11.584;2023-12-14T06:01:49;5.70;99.90
4453;DHT22;2239;48.152;11.584;2023-12-14T06:04:14;5.70;99.90
4453;DHT22;2239;48.152;11.584;2023-12-14T06:06:40;5.70;99.90
4453;DHT22;2239;48.152;11.584;2023-12-14T06:09:06;5.70;99.90
4453;DHT22;2239;48.152;11.584;2023-12-14T06:11:34;5.70;99.90
4453;DHT22;2239;48.152;11.584;2023-12-14T06:14:01;5.70;99.90
4453;DHT22;2239;48.152;11.584;2023-12-14T06:16:27;5.70;99.90
4453;DHT22;2239;48.152;11.584;2023-12-14T06:18:52;5.60;99.90
4453;DHT22;2239;48.152;11.584;2023-12-14T06:21:18;5.60;99.90
4453;DHT22;2239;48.152;11.584;2023-12-14T06:23:44;5.70;99.90
4453;DHT22;2239;48.152;11.584;2023-12-14T06:26:09;5.70;99.90
4453;DHT22;2239;48.152;11.584;2023-12-14T06:28:35;5.70;99.90
4453;DHT22;2239;48.152;11.584;2023-12-14T06:31:00;5.70;99.90
4453;DHT22;2239;48.152;11.584;2023-12-14T06:33:27;5.70;99.90
4453;DHT22;2239;48.152;11.584;2023-12-14T06:35:52;5.70;99.90
4453;DHT22;2239;48.152;11.584;2023-12-14T06:38:18;5.80;99.90
4453;DHT22;2239;48.152;11.584;2023-12-14T06:40:44;5.80;99.90
4453;DHT22;2239;48.152;11.584;2023-12-14T06:43:09;5.70;99.90
4453;DHT22;2239;48.152;11.584;2023-12-14T06:45:38;5.80;99.90
4453;DHT22;2239;48.152;11.584;2023-12-14T06:48:04;5.80;99.90
4453;DHT22;2239;48.152;11.584;2023-12-14T06:50:29;5.80;99.90
4453;DHT22;2239;48.152;11.584;2023-12-14T06:52:55;5.80;99.90
4453;DHT22;2239;48.152;11.584;2023-12-14T06:55:20;5.80;99.90
4453;DHT22;2239;48.152;11.584;2023-12-14T06:57:46;5.80;99.90
4453;DHT22;2239;48.152;11.584;2023-12-14T07:00:13;5.80;99.90
4453;DHT22;2239;48.152;11.584;2023-12-14T07:02:39;5.90;99.90
4453;DHT22;2239;48.152;11.584;2023-12-14T07:05:04;5.90;99.90
4453;DHT22;2239;48.152;11.584;2023-12-14T07:07:30;5.90;99.90
4453;DHT22;2239;48.152;11.584;2023-12-14T07:09:55;5.90;99.90
4453;DHT22;2239;48.152;11.584;2023-12-14T07:12:21;5.90;99.90
4453;DHT22;2239;48.152;11.584;2023-12-14T07:14:46;5.90;99.90
4453;DHT22;2239;48.152;11.584;2023-12-14T07:17:12;5.90;99.90
4453;DHT22;2239;48.152;11.584;2023-12-14T07:19:37;5.90;99.90
4453;DHT22;2239;48.152;11.584;2023-12-14T07:22:03;5.90;99.90
4453;DHT22;2239;48.152;11.584;2023-12-14T07:24:29;5.90;99.90
4453;DHT22;2239;48.152;11.584;2023-12-14T07:26:54;6.00;99.90
4453;DHT22;2239;48.152;11.584;2023-12-14T07:29:20;6.00;99.90
4453;DHT22;2239;48.152;11.584;2023-12-14T07:31:45;6.00;99.90
4453;DHT22;2239;48.152;11.584;2023-12-14T07:34:11;6.00;99.90
4453;DHT22;2239;48.152;11.584;2023-12-14T07:36:36;6.00;99.90
4453;DHT22;2239;48.152;11.584;2023-12-14T07:39:02;6.00;99.90
4453;DHT22;2239;48.152;11.584;2023-12-14T07:41:28;6.00;99.90
4453;DHT22;2239;48.152;11.584;2023-12-14T07:43:57;6.00;99.90
4453;DHT22;2239;48.152;11.584;2023-12-14T07:46:23;6.00;99.90
4453;DHT22;2239;48.152;11.584;2023-12-14T07:48:49;6.00;99.90
4453;DHT22;2239;48.152;11.584;2023-12-14T07:51:15;6.10;99.90
4453;DHT22;2239;48.152;11.584;2023-12-14T07:53:41;6.10;99.90
4453;DHT22;2239;48.152;11.584;2023-12-14T07:56:08;6.10;99.90
4453;DHT22;2239;48.152;11.584;2023-12-14T07:58:34;6.10;99.90
4453;DHT22;2239;48.152;11.584;2023-12-14T08:00:59;6.20;99.90
4453;DHT22;2239;48.152;11.584;2023-12-14T08:03:25;6.20;99.90
4453;DHT22;2239;48.152;11.584;2023-12-14T08:05:51;6.30;99.90
4453;DHT22;2239;48.152;11.584;2023-12-14T08:08:16;6.30;99.90
4453;DHT22;2239;48.152;11.584;2023-12-14T08:10:42;6.30;99.90
4453;DHT22;2239;48.152;11.584;2023-12-14T08:13:07;6.30;99.90
4453;DHT22;2239;48.152;11.584;2023-12-14T08:15:33;6.20;99.90
4453;DHT22;2239;48.152;11.584;2023-12-14T08:17:58;6.30;99.90
4453;DHT22;2239;48.152;11.584;2023-12-14T08:20:24;6.30;99.90
4453;DHT22;2239;48.152;11.584;2023-12-14T08:22:50;6.20;99.90
4453;DHT22;2239;48.152;11.584;2023-12-14T08:25:15;6.30;99.90
4453;DHT22;2239;48.152;11.584;2023-12-14T08:27:42;6.30;99.90
4453;DHT22;2239;48.152;11.584;2023-12-14T08:30:10;6.20;99.90
4453;DHT22;2239;48.152;11.584;2023-12-14T08:32:36;6.30;99.90
4453;DHT22;2239;48.152;11.584;2023-12-14T08:35:01;6.30;99.90
4453;DHT22;2239;48.152;11.584;2023-12-14T08:37:27;6.30;99.90
4453;DHT22;2239;48.152;11.584;2023-12-14T08:39:52;6.30;99.90
4453;DHT22;2239;48.152;11.584;2023-12-14T08:42:18;6.40;99.90
4453;DHT22;2239;48.152;11.584;2023-12-14T08:44:43;6.40;99.90
4453;DHT22;2239;48.152;11.584;2023-12-14T08:47:09;6.40;99.90
4453;DHT22;2239;48.152;11.584;2023-12-14T08:49:35;6.40;99.90
4453;DHT22;2239;48.152;11.584;2023-12-14T08:52:01;6.40;99.90
4453;DHT22;2239;48.152;11.584;2023-12-14T08:54:27;6.50;99.90
4453;DHT22;2239;48.152;11.584;2023-12-14T08:56:53;6.50;99.90
4453;DHT22;2239;48.152;11.584;2023-12-14T08:59:18;6.50;99.90
4453;DHT22;2239;48.152;11.584;2023-12-14T09:01:45;6.50;99.90
4453;DHT22;2239;48.152;11.584;2023-12-14T09:04:11;6.50;99.90
4453;DHT22;2239;48.152;11.584;2023-12-14T09:06:37;6.50;99.90
4453;DHT22;2239;48.152;11.584;2023-12-14T09:09:03;6.60;99.90
4453;DHT22;2239;48.152;11.584;2023-12-14T09:11:28;6.60;99.90
4453;DHT22;2239;48.152;11.584;2023-12-14T09:13:54;6.70;99.90
4453;DHT22;2239;48.152;11.584;2023-12-14T09:16:21;6.70;99.90
4453;DHT22;2239;48.152;11.584;2023-12-14T09:18:48;6.70;99.90
4453;DHT22;2239;48.152;11.584;2023-12-14T09:21:13;6.80;99.90
4453;DHT22;2239;48.152;11.584;2023-12-14T09:23:40;6.90;99.90
4453;DHT22;2239;48.152;11.584;2023-12-14T09:26:06;6.90;99.90
4453;DHT22;2239;48.152;11.584;2023-12-14T09:28:32;6.80;99.90
4453;DHT22;2239;48.152;11.584;2023-12-14T09:30:58;6.80;99.90
4453;DHT22;2239;48.152;11.584;2023-12-14T09:33:24;6.80;99.90
4453;DHT22;2239;48.152;11.584;2023-12-14T09:35:49;6.80;99.90
4453;DHT22;2239;48.152;11.584;2023-12-14T09:38:15;6.80;99.90
4453;DHT22;2239;48.152;11.584;2023-12-14T09:40:43;6.80;99.90
4453;DHT22;2239;48.152;11.584;2023-12-14T09:43:10;6.80;99.90
4453;DHT22;2239;48.152;11.584;2023-12-14T09:45:36;6.80;99.90
4453;DHT22;2239;48.152;11.584;2023-12-14T09:48:02;6.70;99.90
4453;DHT22;2239;48.152;11.584;2023-12-14T09:50:31;6.70;99.90
4453;DHT22;2239;48.152;11.584;2023-12-14T09:52:57;6.70;99.90
4453;DHT22;2239;48.152;11.584;2023-12-14T09:55:22;6.70;99.90
4453;DHT22;2239;48.152;11.584;2023-12-14T09:57:48;6.80;99.90
4453;DHT22;2239;48.152;11.584;2023-12-14T10:00:38;6.70;99.90
4453;DHT22;2239;48.152;11.584;2023-12-14T10:03:24;6.70;99.90
4453;DHT22;2239;48.152;11.584;2023-12-14T10:05:52;6.80;99.90
4453;DHT22;2239;48.152;11.584;2023-12-14T10:08:19;6.80;99.90
4453;DHT22;2239;48.152;11.584;2023-12-14T10:10:47;6.70;99.90
4453;DHT22;2239;48.152;11.584;2023-12-14T10:13:19;6.70;99.90
4453;DHT22;2239;48.152;11.584;2023-12-14T10:15:47;6.70;99.90
4453;DHT22;2239;48.152;11.584;2023-12-14T10:18:25;6.70;99.90
4453;DHT22;2239;48.152;11.584;2023-12-14T10:20:51;6.70;99.90
4453;DHT22;2239;48.152;11.584;2023-12-14T10:23:18;6.70;99.90
4453;DHT22;2239;48.152;11.584;2023-12-14T10:25:44;6.70;99.90
4453;DHT22;2239;48.152;11.584;2023-12-14T10:28:14;6.60;99.90
4453;DHT22;2239;48.152;11.584;2023-12-14T10:30:43;6.60;99.90
4453;DHT22;2239;48.152;11.584;2023-12-14T10:33:09;6.60;99.90
4453;DHT22;2239;48.152;11.584;2023-12-14T10:35:35;6.60;99.90
4453;DHT22;2239;48.152;11.584;2023-12-14T10:38:03;6.60;99.90
4453;DHT22;2239;48.152;11.584;2023-12-14T10:40:31;6.60;99.90
4453;DHT22;2239;48.152;11.584;2023-12-14T10:42:59;6.70;99.90
4453;DHT22;2239;48.152;11.584;2023-12-14T10:45:32;6.70;99.90
4453;DHT22;2239;48.152;11.584;2023-12-14T10:48:01;6.70;99.90
4453;DHT22;2239;48.152;11.584;2023-12-14T10:50:30;6.70;99.90
4453;DHT22;2239;48.152;11.584;2023-12-14T10:52:59;6.70;99.90
4453;DHT22;2239;48.152;11.584;2023-12-14T10:55:30;6.70;99.90
4453;DHT22;2239;48.152;11.584;2023-12-14T10:58:00;6.80;99.90
4453;DHT22;2239;48.152;11.584;2023-12-14T11:00:26;6.90;99.90
4453;DHT22;2239;48.152;11.584;2023-12-14T11:02:52;6.90;99.90
4453;DHT22;2239;48.152;11.584;2023-12-14T11:05:18;6.90;99.90
4453;DHT22;2239;48.152;11.584;2023-12-14T11:07:56;6.90;99.90
4453;DHT22;2239;48.152;11.584;2023-12-14T11:10:53;7.00;99.90
4453;DHT22;2239;48.152;11.584;2023-12-14T11:13:21;7.10;99.90
4453;DHT22;2239;48.152;11.584;2023-12-14T11:15:51;7.10;99.90
4453;DHT22;2239;48.152;11.584;2023-12-14T11:18:26;7.10;99.90
4453;DHT22;2239;48.152;11.584;2023-12-14T11:21:00;7.20;99.90
4453;DHT22;2239;48.152;11.584;2023-12-14T11:23:33;7.30;99.90
4453;DHT22;2239;48.152;11.584;2023-12-14T11:26:08;7.50;99.90
4453;DHT22;2239;48.152;11.584;2023-12-14T11:28:39;7.50;99.90
4453;DHT22;2239;48.152;11.584;2023-12-14T11:31:10;7.60;99.90
4453;DHT22;2239;48.152;11.584;2023-12-14T11:33:36;7.70;99.90
4453;DHT22;2239;48.152;11.584;2023-12-14T11:36:02;7.60;99.90
4453;DHT22;2239;48.152;11.584;2023-12-14T11:38:32;7.70;99.90
4453;DHT22;2239;48.152;11.584;2023-12-14T11:41:01;7.70;99.90
4453;DHT22;2239;48.152;11.584;2023-12-14T11:43:26;7.70;99.90
4453;DHT22;2239;48.152;11.584;2023-12-14T11:45:52;7.90;99.90
4453;DHT22;2239;48.152;11.584;2023-12-14T11:48:19;8.00;99.90
4453;DHT22;2239;48.152;11.584;2023-12-14T11:50:46;8.00;99.90
4453;DHT22;2239;48.152;11.584;2023-12-14T11:53:12;8.00;99.90
4453;DHT22;2239;48.152;11.584;2023-12-14T11:55:40;8.00;99.90
4453;DHT22;2239;48.152;11.584;2023-12-14T11:58:07;8.10;99.90
4453;DHT22;2239;48.152;11.584;2023-12-14T12:00:33;8.00;99.90
4453;DHT22;2239;48.152;11.584;2023-12-14T12:03:09;8.00;99.90
4453;DHT22;2239;48.152;11.584;2023-12-14T12:05:36;8.00;99.90
4453;DHT22;2239;48.152;11.584;2023-12-14T12:08:02;8.00;99.90
4453;DHT22;2239;48.152;11.584;2023-12-14T12:10:29;8.00;99.90
4453;DHT22;2239;48.152;11.584;2023-12-14T12:13:22;8.10;99.90
4453;DHT22;2239;48.152;11.584;2023-12-14T12:15:48;8.00;99.90
4453;DHT22;2239;48.152;11.584;2023-12-14T12:18:16;8.00;99.90
4453;DHT22;2239;48.152;11.584;2023-12-14T12:20:42;8.00;99.90
4453;DHT22;2239;48.152;11.584;2023-12-14T12:23:08;7.90;99.90
4453;DHT22;2239;48.152;11.584;2023-12-14T12:25:35;7.90;99.90
4453;DHT22;2239;48.152;11.584;2023-12-14T12:28:01;7.80;99.90
4453;DHT22;2239;48.152;11.584;2023-12-14T12:30:27;7.70;99.90
4453;DHT22;2239;48.152;11.584;2023-12-14T12:32:53;7.70;99.90
4453;DHT22;2239;48.152;11.584;2023-12-14T12:35:21;7.70;99.90
4453;DHT22;2239;48.152;11.584;2023-12-14T12:37:47;7.70;99.90
4453;DHT22;2239;48.152;11.584;2023-12-14T12:40:22;7.70;99.90
4453;DHT22;2239;48.152;11.584;2023-12-14T12:42:48;7.70;99.90
4453;DHT22;2239;48.152;11.584;2023-12-14T12:45:15;7.80;99.90
4453;DHT22;2239;48.152;11.584;2023-12-14T12:47:42;7.80;99.90
4453;DHT22;2239;48.152;11.584;2023-12-14T12:50:07;7.80;99.90
4453;DHT22;2239;48.152;11.584;2023-12-14T12:52:33;7.80;99.90
4453;DHT22;2239;48.152;11.584;2023-12-14T12:54:59;7.80;99.90
4453;DHT22;2239;48.152;11.584;2023-12-14T12:57:25;7.80;99.90
4453;DHT22;2239;48.152;11.584;2023-12-14T12:59:51;7.80;99.90
4453;DHT22;2239;48.152;11.584;2023-12-14T13:02:17;7.90;99.90
4453;DHT22;2239;48.152;11.584;2023-12-14T13:04:43;7.80;99.90
4453;DHT22;2239;48.152;11.584;2023-12-14T13:07:08;7.80;99.90
4453;DHT22;2239;48.152;11.584;2023-12-14T13:09:34;7.80;99.90
4453;DHT22;2239;48.152;11.584;2023-12-14T13:11:59;7.80;99.90
4453;DHT22;2239;48.152;11.584;2023-12-14T13:14:25;7.70;99.90
4453;DHT22;2239;48.152;11.584;2023-12-14T13:16:51;7.70;99.90
4453;DHT22;2239;48.152;11.584;2023-12-14T13:19:16;7.70;99.90
4453;DHT22;2239;48.152;11.584;2023-12-14T13:21:42;7.70;99.90
4453;DHT22;2239;48.152;11.584;2023-12-14T13:24:07;7.70;99.90
4453;DHT22;2239;48.152;11.584;2023-12-14T13:26:33;7.70;99.90
4453;DHT22;2239;48.152;11.584;2023-12-14T13:28:59;7.70;99.90
4453;DHT22;2239;48.152;11.584;2023-12-14T13:31:24;7.70;99.90
4453;DHT22;2239;48.152;11.584;2023-12-14T13:33:50;7.70;99.90
4453;DHT22;2239;48.152;11.584;2023-12-14T13:36:16;7.60;99.90
4453;DHT22;2239;48.152;11.584;2023-12-14T13:38:42;7.60;99.90
4453;DHT22;2239;48.152;11.584;2023-12-14T13:41:11;7.60;99.90
4453;DHT22;2239;48.152;11.584;2023-12-14T13:43:36;7.60;99.90
4453;DHT22;2239;48.152;11.584;2023-12-14T13:46:02;7.60;99.90
4453;DHT22;2239;48.152;11.584;2023-12-14T13:48:28;7.60;99.90
4453;DHT22;2239;48.152;11.584;2023-12-14T13:50:54;7.60;99.90
4453;DHT22;2239;48.152;11.584;2023-12-14T13:53:21;7.60;99.90
4453;DHT22;2239;48.152;11.584;2023-12-14T13:55:47;7.60;99.90
4453;DHT22;2239;48.152;11.584;2023-12-14T13:58:14;7.50;99.90
4453;DHT22;2239;48.152;11.584;2023-12-14T14:00:39;7.50;99.90
4453;DHT22;2239;48.152;11.584;2023-12-14T14:03:05;7.60;99.90
4453;DHT22;2239;48.152;11.584;2023-12-14T14:05:31;7.60;99.90
4453;DHT22;2239;48.152;11.584;2023-12-14T14:07:57;7.60;99.90
4453;DHT22;2239;48.152;11.584;2023-12-14T14:10:26;7.60;99.90
4453;DHT22;2239;48.152;11.584;2023-12-14T14:12:52;7.60;99.90
4453;DHT22;2239;48.152;11.584;2023-12-14T14:15:17;7.70;99.90
4453;DHT22;2239;48.152;11.584;2023-12-14T14:17:43;7.70;99.90
4453;DHT22;2239;48.152;11.584;2023-12-14T14:20:09;7.70;99.90
4453;DHT22;2239;48.152;11.584;2023-12-14T14:22:36;7.70;99.90
4453;DHT22;2239;48.152;11.584;2023-12-14T14:25:05;7.70;99.90
4453;DHT22;2239;48.152;11.584;2023-12-14T14:27:32;7.70;99.90
4453;DHT22;2239;48.152;11.584;2023-12-14T14:29:58;7.70;99.90
4453;DHT22;2239;48.152;11.584;2023-12-14T14:32:24;7.60;99.90
4453;DHT22;2239;48.152;11.584;2023-12-14T14:34:49;7.60;99.90
4453;DHT22;2239;48.152;11.584;2023-12-14T14:37:16;7.50;99.90
4453;DHT22;2239;48.152;11.584;2023-12-14T14:39:42;7.40;99.90
4453;DHT22;2239;48.152;11.584;2023-12-14T14:42:08;7.30;99.90
4453;DHT22;2239;48.152;11.584;2023-12-14T14:44:34;7.30;99.90
4453;DHT22;2239;48.152;11.584;2023-12-14T14:47:00;7.30;99.90
4453;DHT22;2239;48.152;11.584;2023-12-14T14:49:25;7.30;99.90
4453;DHT22;2239;48.152;11.584;2023-12-14T14:51:51;7.30;99.90
4453;DHT22;2239;48.152;11.584;2023-12-14T14:54:16;7.20;99.90
4453;DHT22;2239;48.152;11.584;2023-12-14T14:56:43;7.20;99.90
4453;DHT22;2239;48.152;11.584;2023-12-14T14:59:09;7.20;99.90
4453;DHT22;2239;48.152;11.584;2023-12-14T15:01:36;7.10;99.90
4453;DHT22;2239;48.152;11.584;2023-12-14T15:04:02;7.10;99.90
4453;DHT22;2239;48.152;11.584;2023-12-14T15:06:27;7.10;99.90
4453;DHT22;2239;48.152;11.584;2023-12-14T15:08:53;7.10;99.90
4453;DHT22;2239;48.152;11.584;2023-12-14T15:11:19;7.10;99.90
4453;DHT22;2239;48.152;11.584;2023-12-14T15:13:44;7.10;99.90
4453;DHT22;2239;48.152;11.584;2023-12-14T15:16:10;7.10;99.90
4453;DHT22;2239;48.152;11.584;2023-12-14T15:18:37;7.10;99.90
4453;DHT22;2239;48.152;11.584;2023-12-14T15:21:07;7.10;99.90
4453;DHT22;2239;48.152;11.584;2023-12-14T15:23:33;7.00;99.90
4453;DHT22;2239;48.152;11.584;2023-12-14T15:25:59;7.00;99.90
4453;DHT22;2239;48.152;11.584;2023-12-14T15:28:24;7.10;99.90
4453;DHT22;2239;48.152;11.584;2023-12-14T15:30:50;7.10;99.90
4453;DHT22;2239;48.152;11.584;2023-12-14T15:33:15;7.00;99.90
4453;DHT22;2239;48.152;11.584;2023-12-14T15:35:41;7.10;99.90
4453;DHT22;2239;48.152;11.584;2023-12-14T15:38:07;7.00;99.90
4453;DHT22;2239;48.152;11.584;2023-12-14T15:40:32;7.00;99.90
4453;DHT22;2239;48.152;11.584;2023-12-14T15:42:58;7.00;99.90
4453;DHT22;2239;48.152;11.584;2023-12-14T15:45:23;7.00;99.90
4453;DHT22;2239;48.152;11.584;2023-12-14T15:47:49;7.00;99.90
4453;DHT22;2239;48.152;11.584;2023-12-14T15:50:16;6.90;99.90
4453;DHT22;2239;48.152;11.584;2023-12-14T15:52:41;6.90;99.90
4453;DHT22;2239;48.152;11.584;2023-12-14T15:55:07;6.90;99.90
4453;DHT22;2239;48.152;11.584;2023-12-14T15:57:33;6.90;99.90
4453;DHT22;2239;48.152;11.584;2023-12-14T15:59:59;6.90;99.90